sensor_id;sensor_type;location;lat;lon;timestamp;temperature;humidity
18624;DHT22;9441;51.420;7.036;2022-11-20T00:00:43;-0.40;99.90
18624;DHT22;9441;51.420;7.036;2022-11-20T00:01:45;-0.40;99.90
18624;DHT22;9441;51.420;7.036;2022-11-20T00:02:47;-0.50;99.90
18624;DHT22;9441;51.420;7.036;2022-11-20T00:03:49;-0.60;99.90
18624;DHT22;9441;51.420;7.036;2022-11-20T00:04:52;-0.60;99.90
18624;DHT22;9441;51.420;7.036;2022-11-20T00:05:53;-0.60;99.90
18624;DHT22;9441;51.420;7.036;2022-11-20T00:06:54;-0.60;99.90
18624;DHT22;9441;51.420;7.036;2022-11-20T00:07:55;-0.50;99.90
18624;DHT22;9441;51.420;7.036;2022-11-20T00:08:59;-0.50;99.90
18624;DHT22;9441;51.420;7.036;2022-11-20T00:10:02;-0.50;99.90
18624;DHT22;9441;51.420;7.036;2022-11-20T00:11:04;-0.50;99.90
18624;DHT22;9441;51.420;7.036;2022-11-20T00:12:06;-0.40;99.90
18624;DHT22;9441;51.420;7.036;2022-11-20T00:13:09;-0.40;99.90
18624;DHT22;9441;51.420;7.036;2022-11-20T00:14:10;-0.40;99.90
18624;DHT22;9441;51.420;7.036;2022-11-20T00:15:12;-0.40;99.90
18624;DHT22;9441;51.420;7.036;2022-11-20T00:16:16;-0.30;99.90
18624;DHT22;9441;51.420;7.036;2022-11-20T00:17:18;-0.40;99.90
18624;DHT22;9441;51.420;7.036;2022-11-20T00:18:19;-0.40;99.90
18624;DHT22;9441;51.420;7.036;2022-11-20T00:19:21;-0.50;99.90
18624;DHT22;9441;51.420;7.036;2022-11-20T00:20:23;-0.50;99.90
18624;DHT22;9441;51.420;7.036;2022-11-20T00:21:25;-0.50;99.90
18624;DHT22;9441;51.420;7.036;2022-11-20T00:22:27;-0.40;99.90
18624;DHT22;9441;51.420;7.036;2022-11-20T00:23:29;-0.50;99.90
18624;DHT22;9441;51.420;7.036;2022-11-20T00:24:31;-0.70;99.90
18624;DHT22;9441;51.420;7.036;2022-11-20T00:25:34;-0.70;99.90
18624;DHT22;9441;51.420;7.036;2022-11-20T00:26:35;-1.00;99.90
18624;DHT22;9441;51.420;7.036;2022-11-20T00:27:37;-1.00;99.90
18624;DHT22;9441;51.420;7.036;2022-11-20T00:28:39;-0.90;99.90
18624;DHT22;9441;51.420;7.036;2022-11-20T00:29:41;-0.80;99.90
18624;DHT22;9441;51.420;7.036;2022-11-20T00:30:42;-0.70;99.90
18624;DHT22;9441;51.420;7.036;2022-11-20T00:31:44;-0.70;99.90
18624;DHT22;9441;51.420;7.036;2022-11-20T00:32:45;-0.60;99.90
18624;DHT22;9441;51.420;7.036;2022-11-20T00:33:48;-0.60;99.90
18624;DHT22;9441;51.420;7.036;2022-11-20T00:34:49;-0.60;99.90
18624;DHT22;9441;51.420;7.036;2022-11-20T00:35:51;-0.60;99.90
18624;DHT22;9441;51.420;7.036;2022-11-20T00:36:52;-0.50;99.90
18624;DHT22;9441;51.420;7.036;2022-11-20T00:37:54;-0.50;99.90
18624;DHT22;9441;51.420;7.036;2022-11-20T00:38:56;-0.50;99.90
18624;DHT22;9441;51.420;7.036;2022-11-20T00:39:59;-0.50;99.90
18624;DHT22;9441;51.420;7.036;2022-11-20T00:41:05;-0.40;99.90
18624;DHT22;9441;51.420;7.036;2022-11-20T00:42:07;-0.40;99.90
18624;DHT22;9441;51.420;7.036;2022-11-20T00:43:08;-0.50;99.90
18624;DHT22;9441;51.420;7.036;2022-11-20T00:44:11;-0.50;99.90
18624;DHT22;9441;51.420;7.036;2022-11-20T00:45:12;-0.70;99.90
18624;DHT22;9441;51.420;7.036;2022-11-20T00:46:16;-0.80;99.90
18624;DHT22;9441;51.420;7.036;2022-11-20T00:47:17;-0.80;99.90
18624;DHT22;9441;51.420;7.036;2022-11-20T00:48:20;-0.80;99.90
18624;DHT22;9441;51.420;7.036;2022-11-20T00:49:21;-0.80;99.90
18624;DHT22;9441;51.420;7.036;2022-11-20T00:50:23;-0.70;99.90
18624;DHT22;9441;51.420;7.036;2022-11-20T00:51:26;-0.60;99.90
18624;DHT22;9441;51.420;7.036;2022-11-20T00:52:28;-0.50;99.90
18624;DHT22;9441;51.420;7.036;2022-11-20T00:53:29;-0.40;99.90
18624;DHT22;9441;51.420;7.036;2022-11-20T00:54:31;-0.40;99.90
18624;DHT22;9441;51.420;7.036;2022-11-20T00:55:32;-0.30;99.90
18624;DHT22;9441;51.420;7.036;2022-11-20T00:56:34;-0.20;99.90
18624;DHT22;9441;51.420;7.036;2022-11-20T00:57:35;-0.20;99.90
18624;DHT22;9441;51.420;7.036;2022-11-20T00:58:38;-0.10;99.90
18624;DHT22;9441;51.420;7.036;2022-11-20T00:59:40;-0.20;99.90
18624;DHT22;9441;51.420;7.036;2022-11-20T01:00:42;-0.20;99.90
18624;DHT22;9441;51.420;7.036;2022-11-20T01:01:43;-0.20;99.90
18624;DHT22;9441;51.420;7.036;2022-11-20T01:02:45;-0.20;99.90
18624;DHT22;9441;51.420;7.036;2022-11-20T01:03:47;-0.30;99.90
18624;DHT22;9441;51.420;7.036;2022-11-20T01:04:49;-0.20;99.90
18624;DHT22;9441;51.420;7.036;2022-11-20T01:05:50;-0.20;99.90
18624;DHT22;9441;51.420;7.036;2022-11-20T01:06:52;-0.20;99.90
18624;DHT22;9441;51.420;7.036;2022-11-20T01:07:53;-0.20;99.90
18624;DHT22;9441;51.420;7.036;2022-11-20T01:08:57;-0.20;99.90
18624;DHT22;9441;51.420;7.036;2022-11-20T01:09:58;-0.10;99.90
18624;DHT22;9441;51.420;7.036;2022-11-20T01:11:00;-0.10;99.90
18624;DHT22;9441;51.420;7.036;2022-11-20T01:12:02;-0.10;99.90
18624;DHT22;9441;51.420;7.036;2022-11-20T01:13:05;0.00;99.90
18624;DHT22;9441;51.420;7.036;2022-11-20T01:14:24;0.00;99.90
18624;DHT22;9441;51.420;7.036;2022-11-20T01:15:28;0.00;99.90
18624;DHT22;9441;51.420;7.036;2022-11-20T01:16:31;0.00;99.90
18624;DHT22;9441;51.420;7.036;2022-11-20T01:17:33;0.10;99.90
18624;DHT22;9441;51.420;7.036;2022-11-20T01:18:34;0.10;99.90
18624;DHT22;9441;51.420;7.036;2022-11-20T01:19:36;0.10;99.90
18624;DHT22;9441;51.420;7.036;2022-11-20T01:20:38;0.20;99.90
18624;DHT22;9441;51.420;7.036;2022-11-20T01:21:40;0.00;99.90
18624;DHT22;9441;51.420;7.036;2022-11-20T01:22:43;-0.10;99.90
18624;DHT22;9441;51.420;7.036;2022-11-20T01:23:45;0.00;99.90
18624;DHT22;9441;51.420;7.036;2022-11-20T01:24:47;0.10;99.90
18624;DHT22;9441;51.420;7.036;2022-11-20T01:25:49;0.10;99.90
18624;DHT22;9441;51.420;7.036;2022-11-20T01:26:51;0.10;99.90
18624;DHT22;9441;51.420;7.036;2022-11-20T01:27:53;0.20;99.90
18624;DHT22;9441;51.420;7.036;2022-11-20T01:28:55;0.20;99.90
18624;DHT22;9441;51.420;7.036;2022-11-20T01:29:57;0.20;99.90
18624;DHT22;9441;51.420;7.036;2022-11-20T01:31:00;0.30;99.90
18624;DHT22;9441;51.420;7.036;2022-11-20T01:32:02;0.30;99.90
18624;DHT22;9441;51.420;7.036;2022-11-20T01:33:04;0.40;99.90
18624;DHT22;9441;51.420;7.036;2022-11-20T01:34:07;0.30;99.90
18624;DHT22;9441;51.420;7.036;2022-11-20T01:35:09;0.20;99.90
18624;DHT22;9441;51.420;7.036;2022-11-20T01:36:12;0.30;99.90
18624;DHT22;9441;51.420;7.036;2022-11-20T01:37:14;0.30;99.90
18624;DHT22;9441;51.420;7.036;2022-11-20T01:38:15;0.40;99.90
18624;DHT22;9441;51.420;7.036;2022-11-20T01:39:19;0.40;99.90
18624;DHT22;9441;51.420;7.036;2022-11-20T01:40:20;0.40;99.90
18624;DHT22;9441;51.420;7.036;2022-11-20T01:41:24;0.30;99.90
18624;DHT22;9441;51.420;7.036;2022-11-20T01:42:47;0.30;99.90
18624;DHT22;9441;51.420;7.036;2022-11-20T01:44:12;0.30;99.90
18624;DHT22;9441;51.420;7.036;2022-11-20T01:47:02;0.50;99.90
18624;DHT22;9441;51.420;7.036;2022-11-20T01:48:05;0.50;99.90
18624;DHT22;9441;51.420;7.036;2022-11-20T01:49:11;0.40;99.90
18624;DHT22;9441;51.420;7.036;2022-11-20T01:50:16;0.40;99.90
18624;DHT22;9441;51.420;7.036;2022-11-20T01:51:24;0.40;99.90
18624;DHT22;9441;51.420;7.036;2022-11-20T01:52:30;0.20;99.90
18624;DHT22;9441;51.420;7.036;2022-11-20T01:53:36;0.20;99.90
18624;DHT22;9441;51.420;7.036;2022-11-20T01:54:40;0.30;99.90
18624;DHT22;9441;51.420;7.036;2022-11-20T01:55:47;0.40;99.90
18624;DHT22;9441;51.420;7.036;2022-11-20T01:56:51;0.50;99.90
18624;DHT22;9441;51.420;7.036;2022-11-20T01:57:56;0.60;99.90
18624;DHT22;9441;51.420;7.036;2022-11-20T01:59:00;0.60;99.90
18624;DHT22;9441;51.420;7.036;2022-11-20T02:00:07;0.60;99.90
18624;DHT22;9441;51.420;7.036;2022-11-20T02:01:17;0.60;99.90
18624;DHT22;9441;51.420;7.036;2022-11-20T02:02:21;0.60;99.90
18624;DHT22;9441;51.420;7.036;2022-11-20T02:03:22;0.70;99.90
18624;DHT22;9441;51.420;7.036;2022-11-20T02:04:24;0.70;99.90
18624;DHT22;9441;51.420;7.036;2022-11-20T02:05:32;0.70;99.90
18624;DHT22;9441;51.420;7.036;2022-11-20T02:06:39;0.70;99.90
18624;DHT22;9441;51.420;7.036;2022-11-20T02:07:43;0.80;99.90
18624;DHT22;9441;51.420;7.036;2022-11-20T02:08:44;0.80;99.90
18624;DHT22;9441;51.420;7.036;2022-11-20T02:09:46;0.80;99.90
18624;DHT22;9441;51.420;7.036;2022-11-20T02:10:47;0.80;99.90
18624;DHT22;9441;51.420;7.036;2022-11-20T02:11:49;0.70;99.90
18624;DHT22;9441;51.420;7.036;2022-11-20T02:12:51;0.80;99.90
18624;DHT22;9441;51.420;7.036;2022-11-20T02:14:10;0.80;99.90
18624;DHT22;9441;51.420;7.036;2022-11-20T02:15:13;0.70;99.90
18624;DHT22;9441;51.420;7.036;2022-11-20T02:16:16;0.80;99.90
18624;DHT22;9441;51.420;7.036;2022-11-20T02:17:22;0.80;99.90
18624;DHT22;9441;51.420;7.036;2022-11-20T02:18:24;0.80;99.90
18624;DHT22;9441;51.420;7.036;2022-11-20T02:19:28;0.80;99.90
18624;DHT22;9441;51.420;7.036;2022-11-20T02:20:30;0.80;99.90
18624;DHT22;9441;51.420;7.036;2022-11-20T02:21:35;0.90;99.90
18624;DHT22;9441;51.420;7.036;2022-11-20T02:22:41;0.90;99.90
18624;DHT22;9441;51.420;7.036;2022-11-20T02:24:09;0.90;99.90
18624;DHT22;9441;51.420;7.036;2022-11-20T02:25:11;0.90;99.90
18624;DHT22;9441;51.420;7.036;2022-11-20T02:26:14;0.90;99.90
18624;DHT22;9441;51.420;7.036;2022-11-20T02:27:18;0.80;99.90
18624;DHT22;9441;51.420;7.036;2022-11-20T02:28:19;0.80;99.90
18624;DHT22;9441;51.420;7.036;2022-11-20T02:29:25;0.70;99.90
18624;DHT22;9441;51.420;7.036;2022-11-20T02:30:27;0.70;99.90
18624;DHT22;9441;51.420;7.036;2022-11-20T02:31:29;0.50;99.90
18624;DHT22;9441;51.420;7.036;2022-11-20T02:32:31;0.50;99.90
18624;DHT22;9441;51.420;7.036;2022-11-20T02:33:34;0.70;99.90
18624;DHT22;9441;51.420;7.036;2022-11-20T02:34:35;0.70;99.90
18624;DHT22;9441;51.420;7.036;2022-11-20T02:35:42;0.80;99.90
18624;DHT22;9441;51.420;7.036;2022-11-20T02:36:44;0.80;99.90
18624;DHT22;9441;51.420;7.036;2022-11-20T02:37:49;0.90;99.90
18624;DHT22;9441;51.420;7.036;2022-11-20T02:38:51;0.80;99.90
18624;DHT22;9441;51.420;7.036;2022-11-20T02:39:54;0.80;99.90
18624;DHT22;9441;51.420;7.036;2022-11-20T02:40:56;0.80;99.90
18624;DHT22;9441;51.420;7.036;2022-11-20T02:41:57;0.80;99.90
18624;DHT22;9441;51.420;7.036;2022-11-20T02:43:01;0.80;99.90
18624;DHT22;9441;51.420;7.036;2022-11-20T02:44:04;0.90;99.90
18624;DHT22;9441;51.420;7.036;2022-11-20T02:45:06;0.90;99.90
18624;DHT22;9441;51.420;7.036;2022-11-20T02:46:08;0.90;99.90
18624;DHT22;9441;51.420;7.036;2022-11-20T02:47:10;0.90;99.90
18624;DHT22;9441;51.420;7.036;2022-11-20T02:48:12;0.90;99.90
18624;DHT22;9441;51.420;7.036;2022-11-20T02:49:13;0.90;99.90
18624;DHT22;9441;51.420;7.036;2022-11-20T02:50:15;0.90;99.90
18624;DHT22;9441;51.420;7.036;2022-11-20T02:51:16;0.90;99.90
18624;DHT22;9441;51.420;7.036;2022-11-20T02:52:18;0.90;99.90
18624;DHT22;9441;51.420;7.036;2022-11-20T02:53:19;0.90;99.90
18624;DHT22;9441;51.420;7.036;2022-11-20T02:54:21;0.90;99.90
18624;DHT22;9441;51.420;7.036;2022-11-20T02:55:23;0.90;99.90
18624;DHT22;9441;51.420;7.036;2022-11-20T02:56:25;0.80;99.90
18624;DHT22;9441;51.420;7.036;2022-11-20T02:57:26;0.70;99.90
18624;DHT22;9441;51.420;7.036;2022-11-20T02:58:28;0.80;99.90
18624;DHT22;9441;51.420;7.036;2022-11-20T02:59:29;0.90;99.90
18624;DHT22;9441;51.420;7.036;2022-11-20T03:00:32;0.90;99.90
18624;DHT22;9441;51.420;7.036;2022-11-20T03:01:33;0.90;99.90
18624;DHT22;9441;51.420;7.036;2022-11-20T03:02:35;1.00;99.90
18624;DHT22;9441;51.420;7.036;2022-11-20T03:03:36;1.00;99.90
18624;DHT22;9441;51.420;7.036;2022-11-20T03:04:38;1.00;99.90
18624;DHT22;9441;51.420;7.036;2022-11-20T03:05:39;1.00;99.90
18624;DHT22;9441;51.420;7.036;2022-11-20T03:06:41;0.90;99.90
18624;DHT22;9441;51.420;7.036;2022-11-20T03:07:43;1.00;99.90
18624;DHT22;9441;51.420;7.036;2022-11-20T03:08:45;1.00;99.90
18624;DHT22;9441;51.420;7.036;2022-11-20T03:09:46;1.00;99.90
18624;DHT22;9441;51.420;7.036;2022-11-20T03:10:49;1.00;99.90
18624;DHT22;9441;51.420;7.036;2022-11-20T03:11:50;1.00;99.90
18624;DHT22;9441;51.420;7.036;2022-11-20T03:12:53;1.10;99.90
18624;DHT22;9441;51.420;7.036;2022-11-20T03:13:55;0.90;99.90
18624;DHT22;9441;51.420;7.036;2022-11-20T03:14:57;0.80;99.90
18624;DHT22;9441;51.420;7.036;2022-11-20T03:15:58;0.90;99.90
18624;DHT22;9441;51.420;7.036;2022-11-20T03:17:00;1.00;99.90
18624;DHT22;9441;51.420;7.036;2022-11-20T03:18:01;1.00;99.90
18624;DHT22;9441;51.420;7.036;2022-11-20T03:19:03;1.10;99.90
18624;DHT22;9441;51.420;7.036;2022-11-20T03:20:05;1.10;99.90
18624;DHT22;9441;51.420;7.036;2022-11-20T03:21:08;1.10;99.90
18624;DHT22;9441;51.420;7.036;2022-11-20T03:22:09;1.00;99.90
18624;DHT22;9441;51.420;7.036;2022-11-20T03:23:11;0.90;99.90
18624;DHT22;9441;51.420;7.036;2022-11-20T03:24:12;0.80;99.90
18624;DHT22;9441;51.420;7.036;2022-11-20T03:25:14;0.90;99.90
18624;DHT22;9441;51.420;7.036;2022-11-20T03:26:19;1.00;99.90
18624;DHT22;9441;51.420;7.036;2022-11-20T03:27:21;1.00;99.90
18624;DHT22;9441;51.420;7.036;2022-11-20T03:28:22;1.10;99.90
18624;DHT22;9441;51.420;7.036;2022-11-20T03:29:24;1.10;99.90
18624;DHT22;9441;51.420;7.036;2022-11-20T03:30:25;1.10;99.90
18624;DHT22;9441;51.420;7.036;2022-11-20T03:31:29;1.00;99.90
18624;DHT22;9441;51.420;7.036;2022-11-20T03:32:32;1.20;99.90
18624;DHT22;9441;51.420;7.036;2022-11-20T03:33:33;1.20;99.90
18624;DHT22;9441;51.420;7.036;2022-11-20T03:34:34;1.10;99.90
18624;DHT22;9441;51.420;7.036;2022-11-20T03:35:35;1.10;99.90
18624;DHT22;9441;51.420;7.036;2022-11-20T03:36:38;1.00;99.90
18624;DHT22;9441;51.420;7.036;2022-11-20T03:37:39;1.00;99.90
18624;DHT22;9441;51.420;7.036;2022-11-20T03:38:42;1.10;99.90
18624;DHT22;9441;51.420;7.036;2022-11-20T03:39:43;1.20;99.90
18624;DHT22;9441;51.420;7.036;2022-11-20T03:40:45;1.20;99.90
18624;DHT22;9441;51.420;7.036;2022-11-20T03:41:47;1.20;99.90
18624;DHT22;9441;51.420;7.036;2022-11-20T03:42:49;1.20;99.90
18624;DHT22;9441;51.420;7.036;2022-11-20T03:43:51;1.30;99.90
18624;DHT22;9441;51.420;7.036;2022-11-20T03:44:53;1.30;99.90
18624;DHT22;9441;51.420;7.036;2022-11-20T03:45:54;1.30;99.90
18624;DHT22;9441;51.420;7.036;2022-11-20T03:46:56;1.20;99.90
18624;DHT22;9441;51.420;7.036;2022-11-20T03:47:57;1.20;99.90
18624;DHT22;9441;51.420;7.036;2022-11-20T03:48:59;1.10;99.90
18624;DHT22;9441;51.420;7.036;2022-11-20T03:50:01;1.20;99.90
18624;DHT22;9441;51.420;7.036;2022-11-20T03:51:10;1.20;99.90
18624;DHT22;9441;51.420;7.036;2022-11-20T03:52:11;1.30;99.90
18624;DHT22;9441;51.420;7.036;2022-11-20T03:53:13;1.40;99.90
18624;DHT22;9441;51.420;7.036;2022-11-20T03:54:14;1.40;99.90
18624;DHT22;9441;51.420;7.036;2022-11-20T03:55:17;1.40;99.90
18624;DHT22;9441;51.420;7.036;2022-11-20T03:56:21;1.40;99.90
18624;DHT22;9441;51.420;7.036;2022-11-20T03:57:25;1.50;99.90
18624;DHT22;9441;51.420;7.036;2022-11-20T03:58:26;1.50;99.90
18624;DHT22;9441;51.420;7.036;2022-11-20T03:59:28;1.50;99.90
18624;DHT22;9441;51.420;7.036;2022-11-20T04:00:29;1.40;99.90
18624;DHT22;9441;51.420;7.036;2022-11-20T04:01:33;1.40;99.90
18624;DHT22;9441;51.420;7.036;2022-11-20T04:02:36;1.50;99.90
18624;DHT22;9441;51.420;7.036;2022-11-20T04:03:38;1.50;99.90
18624;DHT22;9441;51.420;7.036;2022-11-20T04:04:40;1.50;99.90
18624;DHT22;9441;51.420;7.036;2022-11-20T04:05:41;1.50;99.90
18624;DHT22;9441;51.420;7.036;2022-11-20T04:06:43;1.50;99.90
18624;DHT22;9441;51.420;7.036;2022-11-20T04:07:44;1.50;99.90
18624;DHT22;9441;51.420;7.036;2022-11-20T04:08:46;1.50;99.90
18624;DHT22;9441;51.420;7.036;2022-11-20T04:09:47;1.40;99.90
18624;DHT22;9441;51.420;7.036;2022-11-20T04:10:49;1.50;99.90
18624;DHT22;9441;51.420;7.036;2022-11-20T04:11:51;1.50;99.90
18624;DHT22;9441;51.420;7.036;2022-11-20T04:12:54;1.60;99.90
18624;DHT22;9441;51.420;7.036;2022-11-20T04:13:57;1.50;99.90
18624;DHT22;9441;51.420;7.036;2022-11-20T04:15:00;1.40;99.90
18624;DHT22;9441;51.420;7.036;2022-11-20T04:16:01;1.50;99.90
18624;DHT22;9441;51.420;7.036;2022-11-20T04:17:03;1.60;99.90
18624;DHT22;9441;51.420;7.036;2022-11-20T04:18:04;1.60;99.90
18624;DHT22;9441;51.420;7.036;2022-11-20T04:19:12;1.60;99.90
18624;DHT22;9441;51.420;7.036;2022-11-20T04:20:13;1.60;99.90
18624;DHT22;9441;51.420;7.036;2022-11-20T04:21:15;1.60;99.90
18624;DHT22;9441;51.420;7.036;2022-11-20T04:22:16;1.70;99.90
18624;DHT22;9441;51.420;7.036;2022-11-20T04:23:18;1.70;99.90
18624;DHT22;9441;51.420;7.036;2022-11-20T04:24:19;1.70;99.90
18624;DHT22;9441;51.420;7.036;2022-11-20T04:25:21;1.80;99.90
18624;DHT22;9441;51.420;7.036;2022-11-20T04:26:24;1.70;99.90
18624;DHT22;9441;51.420;7.036;2022-11-20T04:27:27;1.60;99.90
18624;DHT22;9441;51.420;7.036;2022-11-20T04:28:29;1.70;99.90
18624;DHT22;9441;51.420;7.036;2022-11-20T04:29:31;1.70;99.90
18624;DHT22;9441;51.420;7.036;2022-11-20T04:30:32;1.70;99.90
18624;DHT22;9441;51.420;7.036;2022-11-20T04:31:34;1.70;99.90
18624;DHT22;9441;51.420;7.036;2022-11-20T04:32:35;1.70;99.90
18624;DHT22;9441;51.420;7.036;2022-11-20T04:33:38;1.80;99.90
18624;DHT22;9441;51.420;7.036;2022-11-20T04:34:39;1.80;99.90
18624;DHT22;9441;51.420;7.036;2022-11-20T04:35:41;1.80;99.90
18624;DHT22;9441;51.420;7.036;2022-11-20T04:36:42;1.80;99.90
18624;DHT22;9441;51.420;7.036;2022-11-20T04:37:44;1.80;99.90
18624;DHT22;9441;51.420;7.036;2022-11-20T04:38:45;1.80;99.90
18624;DHT22;9441;51.420;7.036;2022-11-20T04:39:48;1.80;99.90
18624;DHT22;9441;51.420;7.036;2022-11-20T04:40:50;1.90;99.90
18624;DHT22;9441;51.420;7.036;2022-11-20T04:41:51;1.90;99.90
18624;DHT22;9441;51.420;7.036;2022-11-20T04:43:13;1.90;99.90
18624;DHT22;9441;51.420;7.036;2022-11-20T04:44:16;1.90;99.90
18624;DHT22;9441;51.420;7.036;2022-11-20T04:45:18;1.90;99.90
18624;DHT22;9441;51.420;7.036;2022-11-20T04:46:20;1.90;99.90
18624;DHT22;9441;51.420;7.036;2022-11-20T04:47:22;1.90;99.90
18624;DHT22;9441;51.420;7.036;2022-11-20T04:48:24;1.90;99.90
18624;DHT22;9441;51.420;7.036;2022-11-20T04:49:26;2.00;99.90
18624;DHT22;9441;51.420;7.036;2022-11-20T04:50:27;2.00;99.90
18624;DHT22;9441;51.420;7.036;2022-11-20T04:51:29;2.00;99.90
18624;DHT22;9441;51.420;7.036;2022-11-20T04:52:30;2.00;99.90
18624;DHT22;9441;51.420;7.036;2022-11-20T04:53:32;2.00;99.90
18624;DHT22;9441;51.420;7.036;2022-11-20T04:54:33;2.00;99.90
18624;DHT22;9441;51.420;7.036;2022-11-20T04:55:35;2.10;99.90
18624;DHT22;9441;51.420;7.036;2022-11-20T04:56:36;2.00;99.90
18624;DHT22;9441;51.420;7.036;2022-11-20T04:57:38;2.00;99.90
18624;DHT22;9441;51.420;7.036;2022-11-20T04:58:39;2.00;99.90
18624;DHT22;9441;51.420;7.036;2022-11-20T04:59:43;2.00;99.90
18624;DHT22;9441;51.420;7.036;2022-11-20T05:00:44;2.00;99.90
18624;DHT22;9441;51.420;7.036;2022-11-20T05:01:46;2.00;99.90
18624;DHT22;9441;51.420;7.036;2022-11-20T05:02:47;2.00;99.90
18624;DHT22;9441;51.420;7.036;2022-11-20T05:03:49;1.90;99.90
18624;DHT22;9441;51.420;7.036;2022-11-20T05:04:50;2.00;99.90
18624;DHT22;9441;51.420;7.036;2022-11-20T05:05:52;2.00;99.90
18624;DHT22;9441;51.420;7.036;2022-11-20T05:06:53;2.00;99.90
18624;DHT22;9441;51.420;7.036;2022-11-20T05:07:56;2.00;99.90
18624;DHT22;9441;51.420;7.036;2022-11-20T05:08:57;2.10;99.90
18624;DHT22;9441;51.420;7.036;2022-11-20T05:09:59;2.10;99.90
18624;DHT22;9441;51.420;7.036;2022-11-20T05:11:01;2.10;99.90
18624;DHT22;9441;51.420;7.036;2022-11-20T05:12:04;2.20;99.90
18624;DHT22;9441;51.420;7.036;2022-11-20T05:13:05;2.20;99.90
18624;DHT22;9441;51.420;7.036;2022-11-20T05:14:07;2.10;99.90
18624;DHT22;9441;51.420;7.036;2022-11-20T05:15:10;2.00;99.90
18624;DHT22;9441;51.420;7.036;2022-11-20T05:16:13;1.90;99.90
18624;DHT22;9441;51.420;7.036;2022-11-20T05:17:14;2.00;99.90
18624;DHT22;9441;51.420;7.036;2022-11-20T05:18:16;2.10;99.90
18624;DHT22;9441;51.420;7.036;2022-11-20T05:19:17;2.10;99.90
18624;DHT22;9441;51.420;7.036;2022-11-20T05:20:19;2.20;99.90
18624;DHT22;9441;51.420;7.036;2022-11-20T05:21:21;2.20;99.90
18624;DHT22;9441;51.420;7.036;2022-11-20T05:22:23;2.20;99.90
18624;DHT22;9441;51.420;7.036;2022-11-20T05:23:24;2.20;99.90
18624;DHT22;9441;51.420;7.036;2022-11-20T05:24:26;2.20;99.90
18624;DHT22;9441;51.420;7.036;2022-11-20T05:25:27;2.20;99.90
18624;DHT22;9441;51.420;7.036;2022-11-20T05:26:29;2.20;99.90
18624;DHT22;9441;51.420;7.036;2022-11-20T05:27:30;2.10;99.90
18624;DHT22;9441;51.420;7.036;2022-11-20T05:28:32;2.10;99.90
18624;DHT22;9441;51.420;7.036;2022-11-20T05:29:33;2.10;99.90
18624;DHT22;9441;51.420;7.036;2022-11-20T05:30:37;2.10;99.90
18624;DHT22;9441;51.420;7.036;2022-11-20T05:31:39;2.10;99.90
18624;DHT22;9441;51.420;7.036;2022-11-20T05:32:41;2.10;99.90
18624;DHT22;9441;51.420;7.036;2022-11-20T05:33:43;2.10;99.90
18624;DHT22;9441;51.420;7.036;2022-11-20T05:34:45;2.10;99.90
18624;DHT22;9441;51.420;7.036;2022-11-20T05:35:46;2.10;99.90
18624;DHT22;9441;51.420;7.036;2022-11-20T05:36:49;2.10;99.90
18624;DHT22;9441;51.420;7.036;2022-11-20T05:37:50;2.20;99.90
18624;DHT22;9441;51.420;7.036;2022-11-20T05:38:51;2.20;99.90
18624;DHT22;9441;51.420;7.036;2022-11-20T05:39:52;2.20;99.90
18624;DHT22;9441;51.420;7.036;2022-11-20T05:40:55;2.20;99.90
18624;DHT22;9441;51.420;7.036;2022-11-20T05:41:56;2.30;99.90
18624;DHT22;9441;51.420;7.036;2022-11-20T05:43:11;2.30;99.90
18624;DHT22;9441;51.420;7.036;2022-11-20T05:44:13;2.30;99.90
18624;DHT22;9441;51.420;7.036;2022-11-20T05:45:15;2.40;99.90
18624;DHT22;9441;51.420;7.036;2022-11-20T05:46:19;2.40;99.90
18624;DHT22;9441;51.420;7.036;2022-11-20T05:47:20;2.30;99.90
18624;DHT22;9441;51.420;7.036;2022-11-20T05:48:22;2.30;99.90
18624;DHT22;9441;51.420;7.036;2022-11-20T05:49:23;2.20;99.90
18624;DHT22;9441;51.420;7.036;2022-11-20T05:50:25;2.20;99.90
18624;DHT22;9441;51.420;7.036;2022-11-20T05:51:27;2.20;99.90
18624;DHT22;9441;51.420;7.036;2022-11-20T05:52:29;2.30;99.90
18624;DHT22;9441;51.420;7.036;2022-11-20T05:53:30;2.30;99.90
18624;DHT22;9441;51.420;7.036;2022-11-20T05:54:33;2.40;99.90
18624;DHT22;9441;51.420;7.036;2022-11-20T05:55:34;2.40;99.90
18624;DHT22;9441;51.420;7.036;2022-11-20T05:56:36;2.40;99.90
18624;DHT22;9441;51.420;7.036;2022-11-20T05:57:37;2.50;99.90
18624;DHT22;9441;51.420;7.036;2022-11-20T05:58:39;2.50;99.90
18624;DHT22;9441;51.420;7.036;2022-11-20T05:59:41;2.50;99.90
18624;DHT22;9441;51.420;7.036;2022-11-20T06:00:43;2.50;99.90
18624;DHT22;9441;51.420;7.036;2022-11-20T06:01:45;2.50;99.90
18624;DHT22;9441;51.420;7.036;2022-11-20T06:02:47;2.50;99.90
18624;DHT22;9441;51.420;7.036;2022-11-20T06:03:48;2.50;99.90
18624;DHT22;9441;51.420;7.036;2022-11-20T06:04:51;2.40;99.90
18624;DHT22;9441;51.420;7.036;2022-11-20T06:05:52;2.40;99.90
18624;DHT22;9441;51.420;7.036;2022-11-20T06:06:54;2.40;99.90
18624;DHT22;9441;51.420;7.036;2022-11-20T06:07:54;2.40;99.90
18624;DHT22;9441;51.420;7.036;2022-11-20T06:08:57;2.40;99.90
18624;DHT22;9441;51.420;7.036;2022-11-20T06:09:59;2.40;99.90
18624;DHT22;9441;51.420;7.036;2022-11-20T06:11:04;2.40;99.90
18624;DHT22;9441;51.420;7.036;2022-11-20T06:12:06;2.40;99.90
18624;DHT22;9441;51.420;7.036;2022-11-20T06:13:08;2.40;99.90
18624;DHT22;9441;51.420;7.036;2022-11-20T06:14:09;2.40;99.90
18624;DHT22;9441;51.420;7.036;2022-11-20T06:15:11;2.40;99.90
18624;DHT22;9441;51.420;7.036;2022-11-20T06:16:14;2.40;99.90
18624;DHT22;9441;51.420;7.036;2022-11-20T06:17:18;2.40;99.90
18624;DHT22;9441;51.420;7.036;2022-11-20T06:18:19;2.40;99.90
18624;DHT22;9441;51.420;7.036;2022-11-20T06:19:22;2.50;99.90
18624;DHT22;9441;51.420;7.036;2022-11-20T06:20:23;2.50;99.90
18624;DHT22;9441;51.420;7.036;2022-11-20T06:21:25;2.40;99.90
18624;DHT22;9441;51.420;7.036;2022-11-20T06:22:26;2.50;99.90
18624;DHT22;9441;51.420;7.036;2022-11-20T06:23:29;2.40;99.90
18624;DHT22;9441;51.420;7.036;2022-11-20T06:24:30;2.50;99.90
18624;DHT22;9441;51.420;7.036;2022-11-20T06:25:32;2.50;99.90
18624;DHT22;9441;51.420;7.036;2022-11-20T06:26:33;2.50;99.90
18624;DHT22;9441;51.420;7.036;2022-11-20T06:27:35;2.50;99.90
18624;DHT22;9441;51.420;7.036;2022-11-20T06:28:36;2.50;99.90
18624;DHT22;9441;51.420;7.036;2022-11-20T06:29:38;2.50;99.90
18624;DHT22;9441;51.420;7.036;2022-11-20T06:30:44;2.50;99.90
18624;DHT22;9441;51.420;7.036;2022-11-20T06:31:46;2.50;99.90
18624;DHT22;9441;51.420;7.036;2022-11-20T06:32:48;2.40;99.90
18624;DHT22;9441;51.420;7.036;2022-11-20T06:33:51;2.40;99.90
18624;DHT22;9441;51.420;7.036;2022-11-20T06:34:52;2.40;99.90
18624;DHT22;9441;51.420;7.036;2022-11-20T06:35:56;2.30;99.90
18624;DHT22;9441;51.420;7.036;2022-11-20T06:36:58;2.20;99.90
18624;DHT22;9441;51.420;7.036;2022-11-20T06:37:59;2.20;99.90
18624;DHT22;9441;51.420;7.036;2022-11-20T06:39:00;2.20;99.90
18624;DHT22;9441;51.420;7.036;2022-11-20T06:40:03;2.40;99.90
18624;DHT22;9441;51.420;7.036;2022-11-20T06:41:05;2.50;99.90
18624;DHT22;9441;51.420;7.036;2022-11-20T06:42:08;2.60;99.90
18624;DHT22;9441;51.420;7.036;2022-11-20T06:43:09;2.70;99.90
18624;DHT22;9441;51.420;7.036;2022-11-20T06:44:11;2.70;99.90
18624;DHT22;9441;51.420;7.036;2022-11-20T06:45:12;2.70;99.90
18624;DHT22;9441;51.420;7.036;2022-11-20T06:46:15;2.80;99.90
18624;DHT22;9441;51.420;7.036;2022-11-20T06:47:18;2.70;99.90
18624;DHT22;9441;51.420;7.036;2022-11-20T06:48:22;2.70;99.90
18624;DHT22;9441;51.420;7.036;2022-11-20T06:49:23;2.70;99.90